LQTZ/TZL METAR and TAF weather

Enter ICAO airport designator
Station Type Date Time Source
LQTZ METAR 2024/05/28 23:00 UTC NOAA

LQTZ 282300Z VRB01KT CAVOK 13/13 Q1016


Station Type Date Time Source
LQTZ Decoded METAR 2024/05/28 23:00 UTC NOAA

Tuzla, Bosnia and Herzegovina (LQTZ) 44-33N 018-42E
May 28, 2024 - 07:00 PM EDT / 2024.05.28 2300 UTC
Wind: Variable at 1 MPH (1 KT):0
Visibility: greater than 7 mile(s):0
Temperature: 55 F (13 C)
Dew Point: 55 F (13 C)
Relative Humidity: 100%
Pressure (altimeter): 30.00 in. Hg (1016 hPa)
ob: LQTZ 282300Z VRB01KT CAVOK 13/13 Q1016
cycle: 23

Station Type Date Time Source
LQTZ TAF 2024/05/28 18:08 UTC NOAA